Time;durP1;ratioP1;P1;durP2;ratioP2;P2;SDS_P1;SDS_P2;PMS_P1;PMS_P2;Temp;Humidity;BMP_temperature;BMP_pressure;BME280_temperature;BME280_humidity;BME280_pressure;Samples;Min_cycle;Max_cycle;Signal;HPM_P1;HPM_P2
2022/12/30 00:01:25;;;;;;;1.25;0.70;;;;;;;;;;5071556;28;20060;-83
2022/12/30 00:03:52;;;;;;;2.10;1.10;;;;;;;;;;5072900;28;20571;-82
2022/12/30 00:06:21;;;;;;;2.95;1.50;;;;;;;;;;5090797;28;20067;-83
2022/12/30 00:08:51;;;;;;;2.05;1.30;;;;;;;;;;5075200;28;20062;-83
2022/12/30 00:11:28;;;;;;;4.45;1.20;;;;;;;;;;5075328;28;20071;-82
2022/12/30 00:34:17;;;;;;;0.73;0.50;;;;;;;;;;5084581;28;20056;-83
2022/12/30 00:36:44;;;;;;;1.90;0.40;;;;;;;;;;5071406;28;20075;-82
2022/12/30 00:39:11;;;;;;;0.65;0.30;;;;;;;;;;5062792;28;20527;-82
2022/12/30 00:44:23;;;;;;;1.15;0.30;;;;;;;;;;5091641;28;20063;-83
2022/12/30 00:46:49;;;;;;;0.50;0.47;;;;;;;;;;5074426;28;20055;-83
2022/12/30 00:57:32;;;;;;;0.95;0.40;;;;;;;;;;5090635;28;20487;-83
2022/12/30 00:59:59;;;;;;;3.00;0.52;;;;;;;;;;5054467;28;20059;-83
2022/12/30 01:02:25;;;;;;;0.57;0.30;;;;;;;;;;5054228;28;20052;-82
2022/12/30 01:04:53;;;;;;;0.68;0.68;;;;;;;;;;5054609;28;20148;-82
2022/12/30 01:07:20;;;;;;;0.57;0.40;;;;;;;;;;5054357;28;20048;-84
2022/12/30 01:09:47;;;;;;;0.57;0.40;;;;;;;;;;5057395;28;20098;-83
2022/12/30 01:12:13;;;;;;;0.93;0.40;;;;;;;;;;5077858;28;20048;-82
2022/12/30 01:14:49;;;;;;;6.63;0.55;;;;;;;;;;5072528;28;20048;-83
2022/12/30 01:17:18;;;;;;;0.90;0.40;;;;;;;;;;5057774;28;20060;-83
2022/12/30 01:19:45;;;;;;;1.80;0.30;;;;;;;;;;5039831;28;20054;-83
2022/12/30 01:22:11;;;;;;;1.85;0.70;;;;;;;;;;5054977;28;20063;-83
2022/12/30 01:24:38;;;;;;;2.03;0.50;;;;;;;;;;5071597;28;20067;-83
2022/12/30 01:27:05;;;;;;;0.68;0.30;;;;;;;;;;5038650;28;20053;-81
2022/12/30 01:29:36;;;;;;;1.45;0.30;;;;;;;;;;5038029;28;20051;-82
2022/12/30 01:32:04;;;;;;;1.67;0.60;;;;;;;;;;5039721;28;20052;-82
2022/12/30 01:34:31;;;;;;;0.40;0.40;;;;;;;;;;5047961;28;20052;-83
2022/12/30 01:36:58;;;;;;;0.68;0.40;;;;;;;;;;5055024;28;20044;-82
2022/12/30 01:39:25;;;;;;;0.63;0.43;;;;;;;;;;5094337;28;20077;-81
2022/12/30 01:41:55;;;;;;;0.45;0.40;;;;;;;;;;5116604;28;20046;-81
2022/12/30 01:45:00;;;;;;;0.45;0.20;;;;;;;;;;5099984;28;20048;-81
2022/12/30 01:47:42;;;;;;;1.73;0.50;;;;;;;;;;5115630;28;20067;-81
2022/12/30 01:50:09;;;;;;;0.70;0.60;;;;;;;;;;5095448;28;20062;-81
2022/12/30 01:52:41;;;;;;;0.80;0.30;;;;;;;;;;5112211;28;20028;-80
2022/12/30 01:55:10;;;;;;;0.80;0.50;;;;;;;;;;5083765;28;20031;-80
2022/12/30 01:57:38;;;;;;;1.25;0.30;;;;;;;;;;5078394;28;20090;-80
2022/12/30 02:00:07;;;;;;;0.45;0.28;;;;;;;;;;5079623;28;20088;-80
2022/12/30 02:02:34;;;;;;;2.65;0.50;;;;;;;;;;5080328;28;20044;-80
2022/12/30 02:05:02;;;;;;;1.05;0.47;;;;;;;;;;5079655;28;20066;-80
2022/12/30 02:07:41;;;;;;;0.45;0.40;;;;;;;;;;5078682;28;20063;-79
2022/12/30 02:10:08;;;;;;;0.80;0.30;;;;;;;;;;5078963;28;20028;-79
2022/12/30 02:12:35;;;;;;;1.77;0.50;;;;;;;;;;5078925;28;20273;-78
2022/12/30 02:15:02;;;;;;;0.40;0.30;;;;;;;;;;5096002;28;20059;-78
2022/12/30 02:17:52;;;;;;;0.93;0.35;;;;;;;;;;5095862;28;20100;-79
2022/12/30 02:20:42;;;;;;;0.82;0.50;;;;;;;;;;5078899;28;20046;-79
2022/12/30 02:23:28;;;;;;;0.40;0.40;;;;;;;;;;5082076;28;20108;-79
2022/12/30 02:26:13;;;;;;;1.33;0.40;;;;;;;;;;5095890;28;20036;-79
2022/12/30 02:29:21;;;;;;;0.30;0.22;;;;;;;;;;5094520;28;20032;-80
2022/12/30 02:31:53;;;;;;;0.52;0.43;;;;;;;;;;5052210;28;20041;-80
2022/12/30 02:34:51;;;;;;;2.60;0.60;;;;;;;;;;5084725;28;20052;-79
2022/12/30 02:37:29;;;;;;;0.40;0.35;;;;;;;;;;5086778;28;20056;-80
2022/12/30 02:40:25;;;;;;;0.70;0.50;;;;;;;;;;5110823;28;20924;-80
2022/12/30 02:45:51;;;;;;;0.40;0.30;;;;;;;;;;5097080;28;20061;-80
2022/12/30 02:48:20;;;;;;;2.42;0.65;;;;;;;;;;5060457;28;20123;-79
2022/12/30 02:53:35;;;;;;;0.45;0.40;;;;;;;;;;5061546;28;20741;-79
2022/12/30 02:56:01;;;;;;;1.05;0.60;;;;;;;;;;5057933;28;20045;-81
2022/12/30 02:58:31;;;;;;;1.17;0.40;;;;;;;;;;5064260;28;20059;-81
2022/12/30 03:03:59;;;;;;;1.02;0.45;;;;;;;;;;5092232;28;20055;-81
2022/12/30 03:07:07;;;;;;;0.70;0.40;;;;;;;;;;5065450;28;20075;-81
2022/12/30 03:11:12;;;;;;;0.43;0.43;;;;;;;;;;5079432;28;20055;-81
2022/12/30 03:12:45;;;;;;;1.23;0.50;;;;;;;;;;5099515;28;20055;-80
2022/12/30 03:15:21;;;;;;;2.33;0.57;;;;;;;;;;5063796;28;20059;-81
2022/12/30 03:17:48;;;;;;;1.13;0.35;;;;;;;;;;5073368;28;20056;-81
2022/12/30 03:20:16;;;;;;;2.10;0.75;;;;;;;;;;5073161;28;20147;-81
2022/12/30 03:28:18;;;;;;;1.17;0.45;;;;;;;;;;5081124;28;20203;-81
2022/12/30 03:30:48;;;;;;;1.17;0.50;;;;;;;;;;5073818;28;20147;-81
2022/12/30 03:33:15;;;;;;;1.15;0.50;;;;;;;;;;5059762;28;20586;-81
2022/12/30 03:36:05;;;;;;;0.73;0.45;;;;;;;;;;5060092;28;20055;-80
2022/12/30 03:38:34;;;;;;;2.08;0.77;;;;;;;;;;5060051;28;20408;-81
2022/12/30 03:41:01;;;;;;;0.88;0.60;;;;;;;;;;5039697;28;20168;-81
2022/12/30 03:43:28;;;;;;;1.20;0.70;;;;;;;;;;5039381;28;20415;-81
2022/12/30 03:45:55;;;;;;;3.35;1.35;;;;;;;;;;5055990;28;20491;-81
2022/12/30 03:48:21;;;;;;;2.25;0.80;;;;;;;;;;5085601;28;20429;-79
2022/12/30 03:50:48;;;;;;;2.33;0.80;;;;;;;;;;5092602;28;20143;-79
2022/12/30 03:53:15;;;;;;;2.35;0.80;;;;;;;;;;5075519;28;20040;-80
2022/12/30 03:55:42;;;;;;;2.28;1.00;;;;;;;;;;5075582;28;20429;-79
2022/12/30 03:58:08;;;;;;;1.15;0.43;;;;;;;;;;5096685;28;20056;-80
2022/12/30 04:00:36;;;;;;;0.98;0.82;;;;;;;;;;5055822;28;20099;-79
2022/12/30 04:03:02;;;;;;;1.10;0.60;;;;;;;;;;5058224;28;20055;-79
2022/12/30 04:05:29;;;;;;;1.50;0.63;;;;;;;;;;5060434;28;20511;-79
2022/12/30 04:07:56;;;;;;;1.00;0.50;;;;;;;;;;5065269;28;20416;-80
2022/12/30 04:10:23;;;;;;;1.02;0.40;;;;;;;;;;5058949;28;20139;-80
2022/12/30 04:12:50;;;;;;;1.02;0.60;;;;;;;;;;5109357;28;20079;-80
2022/12/30 04:15:17;;;;;;;2.50;0.90;;;;;;;;;;5120886;28;20052;-80
2022/12/30 04:17:43;;;;;;;1.77;0.40;;;;;;;;;;5091544;28;20481;-80
2022/12/30 04:20:10;;;;;;;0.90;0.60;;;;;;;;;;5072931;28;20639;-80
2022/12/30 04:22:37;;;;;;;1.17;0.60;;;;;;;;;;5071423;28;20558;-80
2022/12/30 04:25:04;;;;;;;1.23;0.40;;;;;;;;;;5055094;28;20468;-80
2022/12/30 04:27:31;;;;;;;1.15;0.90;;;;;;;;;;5060550;28;20117;-80
2022/12/30 04:29:58;;;;;;;2.25;0.60;;;;;;;;;;5091772;28;20094;-80
2022/12/30 04:32:24;;;;;;;0.93;0.40;;;;;;;;;;5108287;28;20508;-79
2022/12/30 04:34:51;;;;;;;1.02;0.43;;;;;;;;;;5075267;28;20055;-80
2022/12/30 04:37:18;;;;;;;3.45;0.45;;;;;;;;;;5074706;28;20059;-80
2022/12/30 04:39:44;;;;;;;0.68;0.57;;;;;;;;;;5068944;28;20075;-81
2022/12/30 04:42:11;;;;;;;0.52;0.30;;;;;;;;;;5038102;28;20049;-80
2022/12/30 04:44:38;;;;;;;2.00;0.55;;;;;;;;;;5057082;28;20427;-80
2022/12/30 04:47:05;;;;;;;0.75;0.55;;;;;;;;;;5073545;28;20061;-79
2022/12/30 04:49:31;;;;;;;2.35;0.60;;;;;;;;;;5078000;28;20503;-79
2022/12/30 04:51:58;;;;;;;1.95;0.70;;;;;;;;;;5102544;28;20042;-78
2022/12/30 04:54:25;;;;;;;4.05;0.80;;;;;;;;;;5097452;28;20044;-79
2022/12/30 04:56:52;;;;;;;1.73;0.68;;;;;;;;;;5110323;28;20097;-79
2022/12/30 04:59:19;;;;;;;1.77;0.40;;;;;;;;;;5055949;28;20095;-80
2022/12/30 05:01:45;;;;;;;2.05;0.50;;;;;;;;;;5040278;28;20136;-80
2022/12/30 05:04:17;;;;;;;0.50;0.40;;;;;;;;;;5071955;28;20393;-78
2022/12/30 05:06:43;;;;;;;1.80;0.90;;;;;;;;;;5055032;28;20052;-78
2022/12/30 05:09:10;;;;;;;3.22;0.70;;;;;;;;;;5055729;28;20079;-79
2022/12/30 05:11:37;;;;;;;1.75;1.20;;;;;;;;;;5074729;28;20063;-78
2022/12/30 05:14:04;;;;;;;1.75;1.48;;;;;;;;;;5091329;28;20127;-78
2022/12/30 05:16:31;;;;;;;2.60;0.90;;;;;;;;;;5091228;28;20551;-78
2022/12/30 05:18:58;;;;;;;0.45;0.45;;;;;;;;;;5058028;28;20131;-78
2022/12/30 05:21:24;;;;;;;0.68;0.68;;;;;;;;;;5054225;28;20060;-80
2022/12/30 05:26:37;;;;;;;1.65;0.77;;;;;;;;;;5071707;28;20573;-80
2022/12/30 05:29:03;;;;;;;0.90;0.55;;;;;;;;;;5087941;28;20091;-79
2022/12/30 05:31:30;;;;;;;1.08;0.60;;;;;;;;;;5092459;28;20055;-79
2022/12/30 05:33:57;;;;;;;0.98;0.63;;;;;;;;;;5091934;28;20051;-80
2022/12/30 05:36:34;;;;;;;1.20;0.70;;;;;;;;;;5076640;28;20067;-80
2022/12/30 05:39:01;;;;;;;0.93;0.70;;;;;;;;;;5042133;28;20123;-81
2022/12/30 05:41:27;;;;;;;1.30;0.68;;;;;;;;;;5054434;28;20048;-81
2022/12/30 05:43:54;;;;;;;0.55;0.38;;;;;;;;;;5054979;28;20056;-81
2022/12/30 05:46:21;;;;;;;0.45;0.32;;;;;;;;;;5072226;28;20504;-82
2022/12/30 05:48:48;;;;;;;1.45;0.40;;;;;;;;;;5068745;28;20108;-82
2022/12/30 05:51:15;;;;;;;1.08;0.98;;;;;;;;;;5093337;28;20150;-81
2022/12/30 05:53:42;;;;;;;0.88;0.60;;;;;;;;;;5075866;28;20111;-81
2022/12/30 05:56:09;;;;;;;0.80;0.50;;;;;;;;;;5075940;28;20056;-81
2022/12/30 05:58:36;;;;;;;0.80;0.50;;;;;;;;;;5079474;28;20057;-81
2022/12/30 06:01:03;;;;;;;1.15;0.32;;;;;;;;;;5046216;28;20064;-81
2022/12/30 06:03:30;;;;;;;1.08;0.68;;;;;;;;;;5059714;28;20059;-82
2022/12/30 06:05:59;;;;;;;1.83;0.95;;;;;;;;;;5075309;28;20093;-81
2022/12/30 06:08:25;;;;;;;2.13;1.05;;;;;;;;;;5047510;28;20080;-82
2022/12/30 06:10:52;;;;;;;2.70;1.10;;;;;;;;;;5054674;28;20088;-82
2022/12/30 06:13:19;;;;;;;1.80;1.17;;;;;;;;;;5071373;28;20088;-82
2022/12/30 06:15:46;;;;;;;2.25;0.80;;;;;;;;;;5047781;28;20048;-83
2022/12/30 06:18:13;;;;;;;1.05;0.60;;;;;;;;;;5075023;28;20056;-84
2022/12/30 06:20:40;;;;;;;3.05;0.80;;;;;;;;;;5054431;28;20080;-82
2022/12/30 06:23:07;;;;;;;4.20;0.60;;;;;;;;;;5091475;28;20499;-81
2022/12/30 06:25:34;;;;;;;0.90;0.80;;;;;;;;;;5091338;28;20052;-81
2022/12/30 06:28:01;;;;;;;0.68;0.52;;;;;;;;;;5090899;28;20116;-83
2022/12/30 06:30:28;;;;;;;1.67;0.70;;;;;;;;;;5073765;28;20055;-82
2022/12/30 06:32:58;;;;;;;2.33;0.55;;;;;;;;;;5076035;28;20056;-83
2022/12/30 06:35:29;;;;;;;2.25;0.73;;;;;;;;;;5061283;28;20052;-82
2022/12/30 06:37:56;;;;;;;2.65;0.70;;;;;;;;;;5094093;28;20056;-81
2022/12/30 06:40:23;;;;;;;0.90;0.80;;;;;;;;;;5077296;28;20060;-80
2022/12/30 06:42:49;;;;;;;1.95;1.02;;;;;;;;;;5080247;28;20083;-85
2022/12/30 06:45:17;;;;;;;2.60;1.10;;;;;;;;;;5082507;28;20163;-83
2022/12/30 06:47:43;;;;;;;0.93;0.80;;;;;;;;;;5097449;28;20084;-81
2022/12/30 06:50:10;;;;;;;1.33;0.85;;;;;;;;;;5094415;28;20048;-82
2022/12/30 06:52:37;;;;;;;2.35;0.82;;;;;;;;;;5077224;28;20043;-82
2022/12/30 06:55:05;;;;;;;1.85;0.70;;;;;;;;;;5077611;28;20088;-81
2022/12/30 06:57:33;;;;;;;1.73;0.77;;;;;;;;;;5060642;28;20052;-81
2022/12/30 07:00:00;;;;;;;1.83;1.05;;;;;;;;;;5057571;28;20135;-82
2022/12/30 07:02:27;;;;;;;1.52;0.93;;;;;;;;;;5061073;28;20054;-82
2022/12/30 07:04:54;;;;;;;1.00;0.90;;;;;;;;;;5061564;28;20044;-83
2022/12/30 07:07:20;;;;;;;1.17;0.95;;;;;;;;;;5077672;28;20675;-79
2022/12/30 07:09:47;;;;;;;2.20;0.85;;;;;;;;;;5089026;28;20052;-81
2022/12/30 07:12:14;;;;;;;1.95;0.95;;;;;;;;;;5089457;28;20090;-79
2022/12/30 07:14:41;;;;;;;1.98;1.00;;;;;;;;;;5085175;28;20075;-84
2022/12/30 07:17:08;;;;;;;1.25;0.73;;;;;;;;;;5095990;28;20056;-77
2022/12/30 07:19:35;;;;;;;3.25;1.30;;;;;;;;;;5091167;28;20109;-78
2022/12/30 07:22:02;;;;;;;1.25;1.00;;;;;;;;;;5070829;28;20051;-80
2022/12/30 07:24:30;;;;;;;2.20;1.33;;;;;;;;;;5050352;28;20048;-81
2022/12/30 07:26:57;;;;;;;5.10;1.20;;;;;;;;;;5072650;28;20035;-81
2022/12/30 07:29:24;;;;;;;1.40;1.25;;;;;;;;;;5074517;28;20052;-81
2022/12/30 07:31:51;;;;;;;3.28;1.70;;;;;;;;;;5070443;28;20048;-80
2022/12/30 07:34:18;;;;;;;4.38;2.30;;;;;;;;;;5094518;28;20075;-81
2022/12/30 07:36:46;;;;;;;2.65;1.70;;;;;;;;;;5080287;28;20056;-81
2022/12/30 07:39:13;;;;;;;1.95;1.33;;;;;;;;;;5102821;28;20067;-81
2022/12/30 07:41:40;;;;;;;4.00;1.40;;;;;;;;;;5077616;28;20052;-81
2022/12/30 07:44:07;;;;;;;4.95;1.70;;;;;;;;;;5092272;28;20052;-81
2022/12/30 07:46:36;;;;;;;4.78;1.75;;;;;;;;;;5075424;28;20078;-81
2022/12/30 07:49:03;;;;;;;1.73;1.25;;;;;;;;;;5064399;28;20067;-81
2022/12/30 07:51:30;;;;;;;10.60;2.00;;;;;;;;;;5074522;28;20439;-81
2022/12/30 07:53:58;;;;;;;2.28;1.52;;;;;;;;;;5079988;28;20108;-81
2022/12/30 07:56:32;;;;;;;5.88;2.58;;;;;;;;;;5050463;28;20102;-81
2022/12/30 07:58:59;;;;;;;2.85;1.90;;;;;;;;;;5058258;28;20498;-83
2022/12/30 08:01:26;;;;;;;4.25;2.42;;;;;;;;;;5056724;28;20062;-82
2022/12/30 08:03:53;;;;;;;4.80;1.85;;;;;;;;;;5083201;28;20050;-79
2022/12/30 08:06:19;;;;;;;3.30;2.50;;;;;;;;;;5069047;28;20059;-82
2022/12/30 08:08:46;;;;;;;4.63;2.33;;;;;;;;;;5093468;28;20079;-81
2022/12/30 08:11:15;;;;;;;5.97;2.58;;;;;;;;;;5058979;28;20576;-81
2022/12/30 08:13:43;;;;;;;6.00;2.75;;;;;;;;;;5058958;28;20186;-82
2022/12/30 08:16:11;;;;;;;3.53;2.40;;;;;;;;;;5074391;28;20143;-81
2022/12/30 08:18:39;;;;;;;4.78;2.30;;;;;;;;;;5065374;28;20060;-78
2022/12/30 08:21:10;;;;;;;2.40;2.20;;;;;;;;;;5072603;28;20047;-77
2022/12/30 08:23:37;;;;;;;4.22;2.13;;;;;;;;;;5055616;28;20044;-78
2022/12/30 08:26:19;;;;;;;3.33;2.05;;;;;;;;;;5056291;28;20055;-79
2022/12/30 08:28:48;;;;;;;2.67;1.98;;;;;;;;;;5066504;28;20052;-78
2022/12/30 08:31:21;;;;;;;3.05;2.22;;;;;;;;;;5099079;28;20052;-78
2022/12/30 08:33:49;;;;;;;;;;;;;;;;;;5056869;28;20503;-78
2022/12/30 08:36:20;;;;;;;3.42;1.67;;;;;;;;;;5092928;28;19934;-81
2022/12/30 08:38:51;;;;;;;4.55;2.60;;;;;;;;;;5059165;28;20052;-81
2022/12/30 08:41:28;;;;;;;2.28;1.80;;;;;;;;;;5093432;28;20048;-81
2022/12/30 08:43:57;;;;;;;9.23;4.50;;;;;;;;;;5076169;28;20079;-82
2022/12/30 08:46:27;;;;;;;6.85;4.03;;;;;;;;;;5076533;28;20056;-80
2022/12/30 08:48:55;;;;;;;7.45;4.95;;;;;;;;;;5078023;28;20059;-81
2022/12/30 08:51:24;;;;;;;4.85;3.75;;;;;;;;;;5067654;28;20047;-81
2022/12/30 08:53:52;;;;;;;5.32;3.35;;;;;;;;;;5075724;28;20241;-81
2022/12/30 08:56:24;;;;;;;7.30;3.47;;;;;;;;;;5074676;28;20048;-81
2022/12/30 08:58:52;;;;;;;4.25;2.70;;;;;;;;;;5075184;28;20163;-82
2022/12/30 09:01:25;;;;;;;3.30;2.50;;;;;;;;;;5074164;28;20105;-81
2022/12/30 09:03:53;;;;;;;2.75;2.13;;;;;;;;;;5075531;28;20073;-80
2022/12/30 09:06:21;;;;;;;4.85;3.28;;;;;;;;;;5092107;28;20419;-80
2022/12/30 09:08:48;;;;;;;3.63;2.47;;;;;;;;;;5058497;28;20066;-80
2022/12/30 09:11:18;;;;;;;4.00;2.50;;;;;;;;;;5058119;28;20079;-80
2022/12/30 09:13:45;;;;;;;3.97;2.20;;;;;;;;;;5074300;28;20052;-80
2022/12/30 09:16:14;;;;;;;3.90;1.95;;;;;;;;;;5064220;28;20060;-80
2022/12/30 09:18:41;;;;;;;3.83;1.75;;;;;;;;;;5064268;28;20488;-81
2022/12/30 09:21:08;;;;;;;5.55;2.15;;;;;;;;;;5057022;28;20465;-80
2022/12/30 09:23:35;;;;;;;3.20;1.75;;;;;;;;;;5076031;28;20515;-80
2022/12/30 09:26:03;;;;;;;2.17;1.50;;;;;;;;;;5049611;28;20091;-81
2022/12/30 09:28:30;;;;;;;4.63;1.85;;;;;;;;;;5048540;28;20106;-80
2022/12/30 09:30:57;;;;;;;3.30;2.10;;;;;;;;;;5057562;28;20070;-80
2022/12/30 09:33:24;;;;;;;3.83;1.58;;;;;;;;;;5081936;28;20146;-80
2022/12/30 09:35:50;;;;;;;2.40;1.60;;;;;;;;;;5108643;28;20040;-80
2022/12/30 09:38:17;;;;;;;3.17;1.88;;;;;;;;;;5079033;28;20108;-81
2022/12/30 09:41:16;;;;;;;5.22;1.70;;;;;;;;;;5078061;28;20054;-81
2022/12/30 09:43:49;;;;;;;2.58;1.20;;;;;;;;;;5078096;28;20048;-80
2022/12/30 09:46:31;;;;;;;3.13;1.80;;;;;;;;;;5085000;28;20135;-80
2022/12/30 09:49:02;;;;;;;3.40;1.35;;;;;;;;;;5095662;28;20424;-80
2022/12/30 09:51:52;;;;;;;1.73;1.15;;;;;;;;;;5079167;28;20096;-80
2022/12/30 09:54:21;;;;;;;2.33;1.40;;;;;;;;;;5081716;28;20047;-80
2022/12/30 09:56:48;;;;;;;2.47;1.00;;;;;;;;;;5075230;28;20584;-80
2022/12/30 09:59:20;;;;;;;2.15;1.10;;;;;;;;;;5072130;28;20062;-81
2022/12/30 10:01:56;;;;;;;1.50;1.10;;;;;;;;;;5074349;28;20063;-81
2022/12/30 10:04:23;;;;;;;2.55;0.90;;;;;;;;;;5077102;28;20052;-81
2022/12/30 10:07:15;;;;;;;3.13;1.15;;;;;;;;;;5061294;28;20051;-80
2022/12/30 10:09:44;;;;;;;1.20;0.90;;;;;;;;;;5083463;28;20060;-80
2022/12/30 10:12:47;;;;;;;4.00;1.10;;;;;;;;;;5066360;28;20053;-81
2022/12/30 10:15:23;;;;;;;1.73;1.13;;;;;;;;;;5069341;28;20048;-80
2022/12/30 10:18:02;;;;;;;1.60;0.90;;;;;;;;;;5087250;28;20112;-81
2022/12/30 10:20:39;;;;;;;3.63;1.30;;;;;;;;;;5086477;28;20045;-81
2022/12/30 10:23:17;;;;;;;2.15;0.88;;;;;;;;;;5076404;28;20112;-80
2022/12/30 10:25:50;;;;;;;1.70;1.10;;;;;;;;;;5071519;28;20138;-82
2022/12/30 10:28:24;;;;;;;2.28;0.85;;;;;;;;;;5076215;28;20419;-81
2022/12/30 10:30:51;;;;;;;1.10;0.70;;;;;;;;;;5095236;28;20047;-80
2022/12/30 10:33:20;;;;;;;3.72;1.23;;;;;;;;;;5095006;28;20056;-81
2022/12/30 10:36:23;;;;;;;1.20;0.98;;;;;;;;;;5078204;28;20113;-81
2022/12/30 10:39:12;;;;;;;1.92;1.00;;;;;;;;;;5099848;28;20078;-81
2022/12/30 10:41:42;;;;;;;1.25;0.85;;;;;;;;;;5105401;28;20053;-81
2022/12/30 10:44:24;;;;;;;2.17;1.33;;;;;;;;;;5079075;28;20048;-80
2022/12/30 10:47:13;;;;;;;1.37;1.20;;;;;;;;;;5061454;28;20492;-80
2022/12/30 10:49:55;;;;;;;5.28;1.00;;;;;;;;;;5094057;28;20071;-81
2022/12/30 10:52:22;;;;;;;2.03;1.23;;;;;;;;;;5081607;28;20148;-81
2022/12/30 10:54:49;;;;;;;3.05;1.60;;;;;;;;;;5055241;28;20076;-81
2022/12/30 10:57:26;;;;;;;2.80;1.30;;;;;;;;;;5057000;28;20124;-81
2022/12/30 10:59:55;;;;;;;3.10;1.30;;;;;;;;;;5057157;28;20060;-83
2022/12/30 11:02:25;;;;;;;2.90;1.30;;;;;;;;;;5050969;28;20052;-81
2022/12/30 11:04:52;;;;;;;2.30;1.27;;;;;;;;;;5075291;28;20052;-81
2022/12/30 11:07:20;;;;;;;2.78;1.15;;;;;;;;;;5076192;28;20052;-82
2022/12/30 11:09:47;;;;;;;2.70;1.40;;;;;;;;;;5076162;28;20148;-77
2022/12/30 11:15:24;;;;;;;2.53;1.45;;;;;;;;;;5077414;28;20074;-79
2022/12/30 11:17:57;;;;;;;4.30;1.60;;;;;;;;;;5091223;28;20419;-79
2022/12/30 11:20:36;;;;;;;2.63;1.55;;;;;;;;;;5077722;28;20055;-80
2022/12/30 11:23:05;;;;;;;2.28;1.23;;;;;;;;;;5078296;28;20062;-79
2022/12/30 11:25:37;;;;;;;2.70;1.30;;;;;;;;;;5094509;28;20089;-83
2022/12/30 11:28:12;;;;;;;1.95;1.10;;;;;;;;;;5095681;28;20131;-82
2022/12/30 11:30:43;;;;;;;3.05;1.38;;;;;;;;;;5079970;28;20155;-82
2022/12/30 11:33:33;;;;;;;1.50;0.90;;;;;;;;;;5095415;28;20499;-82
2022/12/30 11:36:26;;;;;;;1.85;1.20;;;;;;;;;;5079169;28;20138;-82
2022/12/30 11:38:54;;;;;;;1.00;0.90;;;;;;;;;;5080935;28;20135;-81
2022/12/30 11:41:28;;;;;;;1.63;0.80;;;;;;;;;;5076838;28;20131;-82
2022/12/30 11:43:58;;;;;;;2.45;1.15;;;;;;;;;;5058343;28;20122;-82
2022/12/30 11:46:34;;;;;;;1.00;0.70;;;;;;;;;;5077097;28;20052;-82
2022/12/30 11:49:20;;;;;;;1.00;0.90;;;;;;;;;;5043025;28;20131;-82
2022/12/30 11:51:49;;;;;;;2.22;1.23;;;;;;;;;;5075424;28;20056;-82
2022/12/30 11:54:19;;;;;;;1.90;0.85;;;;;;;;;;5063424;28;20520;-83
2022/12/30 11:56:51;;;;;;;0.70;0.70;;;;;;;;;;5079471;28;20048;-83
2022/12/30 11:59:20;;;;;;;0.77;0.77;;;;;;;;;;5095567;28;20058;-83
2022/12/30 12:01:54;;;;;;;2.35;0.77;;;;;;;;;;5079197;28;20056;-83
2022/12/30 12:04:39;;;;;;;2.58;0.70;;;;;;;;;;5079938;28;20322;-82
2022/12/30 12:07:24;;;;;;;0.55;0.50;;;;;;;;;;5079457;28;20135;-82
2022/12/30 12:10:08;;;;;;;0.80;0.60;;;;;;;;;;5083847;28;20032;-80
2022/12/30 12:12:48;;;;;;;1.58;1.45;;;;;;;;;;5104347;28;20122;-79
2022/12/30 12:15:40;;;;;;;1.38;0.70;;;;;;;;;;5080968;28;20044;-81
2022/12/30 12:18:14;;;;;;;1.67;0.57;;;;;;;;;;5078883;28;20538;-82
2022/12/30 12:20:44;;;;;;;0.65;0.65;;;;;;;;;;5094645;28;20044;-82
2022/12/30 12:23:26;;;;;;;1.42;0.70;;;;;;;;;;5067843;28;20052;-81
2022/12/30 12:26:15;;;;;;;0.93;0.57;;;;;;;;;;5083259;28;20097;-81
2022/12/30 12:28:43;;;;;;;2.25;0.68;;;;;;;;;;5075436;28;20044;-81
2022/12/30 12:31:24;;;;;;;0.75;0.60;;;;;;;;;;5076119;28;20419;-81
2022/12/30 12:33:53;;;;;;;0.60;0.52;;;;;;;;;;5081807;28;20052;-81
2022/12/30 12:36:28;;;;;;;0.80;0.43;;;;;;;;;;5092176;28;20411;-82
2022/12/30 12:39:01;;;;;;;2.70;0.57;;;;;;;;;;5059527;28;20052;-82
2022/12/30 12:41:50;;;;;;;0.30;0.30;;;;;;;;;;5072703;28;20155;-82
2022/12/30 12:44:42;;;;;;;0.95;0.60;;;;;;;;;;5096093;28;20056;-82
2022/12/30 12:47:33;;;;;;;0.80;0.60;;;;;;;;;;5109890;28;20075;-82
2022/12/30 12:50:28;;;;;;;1.45;0.90;;;;;;;;;;5084269;28;20052;-81
2022/12/30 12:53:35;;;;;;;1.63;1.00;;;;;;;;;;5090862;28;20044;-82
2022/12/30 12:56:22;;;;;;;1.60;0.73;;;;;;;;;;5079086;28;20057;-81
2022/12/30 12:59:14;;;;;;;1.42;0.90;;;;;;;;;;5081621;28;20044;-81
2022/12/30 13:02:09;;;;;;;1.27;0.80;;;;;;;;;;5079348;28;20056;-81
2022/12/30 13:05:09;;;;;;;2.47;0.75;;;;;;;;;;5105521;28;20135;-81
2022/12/30 13:07:57;;;;;;;1.02;0.85;;;;;;;;;;5089618;28;20051;-81
2022/12/30 13:10:55;;;;;;;0.80;0.70;;;;;;;;;;5083024;28;20107;-81
2022/12/30 13:14:07;;;;;;;0.60;0.50;;;;;;;;;;5086315;28;20044;-82
2022/12/30 13:16:45;;;;;;;1.58;0.77;;;;;;;;;;5069831;28;20308;-81
2022/12/30 13:19:14;;;;;;;1.45;0.52;;;;;;;;;;5088129;28;20064;-81
2022/12/30 13:21:43;;;;;;;1.27;0.88;;;;;;;;;;5067013;28;20530;-81
2022/12/30 13:24:25;;;;;;;2.22;0.70;;;;;;;;;;5091423;28;20048;-81
2022/12/30 13:26:53;;;;;;;1.08;0.60;;;;;;;;;;5068695;28;20054;-81
2022/12/30 13:29:20;;;;;;;0.50;0.50;;;;;;;;;;5074824;28;20060;-81
2022/12/30 13:31:58;;;;;;;0.80;0.50;;;;;;;;;;5086188;28;20060;-82
2022/12/30 13:34:48;;;;;;;1.17;0.50;;;;;;;;;;5091010;28;20094;-81
2022/12/30 13:37:39;;;;;;;2.05;1.30;;;;;;;;;;5077669;28;20059;-80
2022/12/30 13:40:15;;;;;;;2.50;2.03;;;;;;;;;;5062973;28;20052;-81
2022/12/30 13:42:42;;;;;;;1.85;0.90;;;;;;;;;;5091304;28;20059;-81
2022/12/30 13:45:39;;;;;;;1.73;1.08;;;;;;;;;;5087322;28;20047;-81
2022/12/30 13:48:10;;;;;;;1.00;0.70;;;;;;;;;;5066448;28;20058;-82
2022/12/30 13:50:39;;;;;;;1.90;1.25;;;;;;;;;;5093061;28;20058;-81
2022/12/30 13:53:24;;;;;;;4.20;1.30;;;;;;;;;;5068025;28;20049;-80
2022/12/30 13:55:51;;;;;;;1.23;0.70;;;;;;;;;;5082651;28;20049;-81
2022/12/30 13:58:24;;;;;;;1.35;0.80;;;;;;;;;;5092202;28;20055;-81
2022/12/30 14:01:15;;;;;;;1.52;0.93;;;;;;;;;;5072527;28;20053;-82
2022/12/30 14:03:43;;;;;;;6.57;2.55;;;;;;;;;;5089220;28;20048;-81
2022/12/30 14:06:29;;;;;;;5.55;2.35;;;;;;;;;;5066824;28;20142;-81
2022/12/30 14:09:31;;;;;;;7.85;2.67;;;;;;;;;;5091705;28;20063;-82
2022/12/30 14:12:12;;;;;;;3.67;1.50;;;;;;;;;;5091447;28;20070;-82
2022/12/30 14:14:42;;;;;;;2.38;1.40;;;;;;;;;;5091598;28;20098;-81
2022/12/30 14:17:15;;;;;;;0.60;0.60;;;;;;;;;;5084837;28;20122;-80
2022/12/30 14:19:58;;;;;;;;;;;;;;;;;;5079838;28;20049;-78
2022/12/30 14:22:48;;;;;;;0.60;0.60;;;;;;;;;;5083840;28;19927;-78
2022/12/30 14:25:16;;;;;;;0.90;0.70;;;;;;;;;;5091532;28;20052;-77
2022/12/30 14:27:49;;;;;;;1.80;0.82;;;;;;;;;;5092802;28;20052;-78
2022/12/30 14:30:27;;;;;;;2.63;1.27;;;;;;;;;;5071229;28;20108;-77
2022/12/30 14:33:06;;;;;;;1.25;1.10;;;;;;;;;;5098820;28;20050;-78
2022/12/30 14:35:34;;;;;;;1.00;0.90;;;;;;;;;;5075113;28;20048;-78
2022/12/30 14:38:25;;;;;;;3.05;1.63;;;;;;;;;;5069254;28;20041;-79
2022/12/30 14:41:06;;;;;;;3.13;1.63;;;;;;;;;;5068712;28;20040;-79
2022/12/30 14:43:40;;;;;;;7.25;3.20;;;;;;;;;;5060574;28;20118;-79
2022/12/30 14:46:32;;;;;;;4.28;2.92;;;;;;;;;;5059669;28;20044;-79
2022/12/30 14:49:46;;;;;;;6.65;4.25;;;;;;;;;;5085307;28;20150;-79
2022/12/30 14:52:22;;;;;;;7.32;5.22;;;;;;;;;;5080818;28;20064;-82
2022/12/30 14:55:11;;;;;;;7.95;5.05;;;;;;;;;;5069568;28;20085;-82
2022/12/30 14:57:41;;;;;;;7.18;3.95;;;;;;;;;;5085957;28;20063;-80
2022/12/30 15:00:10;;;;;;;6.80;3.85;;;;;;;;;;5062058;28;20109;-82
2022/12/30 15:02:50;;;;;;;8.00;4.53;;;;;;;;;;5084651;28;20491;-81
2022/12/30 15:05:20;;;;;;;7.53;3.83;;;;;;;;;;5091694;28;20048;-81
2022/12/30 15:07:56;;;;;;;5.78;3.72;;;;;;;;;;5077550;28;20052;-80
2022/12/30 15:10:34;;;;;;;7.30;3.55;;;;;;;;;;5058570;28;20048;-80
2022/12/30 15:13:21;;;;;;;4.63;3.15;;;;;;;;;;5075863;28;20051;-80
2022/12/30 15:15:59;;;;;;;5.10;3.20;;;;;;;;;;5088240;28;20462;-80
2022/12/30 15:18:50;;;;;;;4.70;2.92;;;;;;;;;;5080048;28;20079;-80
2022/12/30 15:21:20;;;;;;;5.93;3.33;;;;;;;;;;5075118;28;20052;-80
2022/12/30 15:23:59;;;;;;;5.30;2.00;;;;;;;;;;5061840;28;20051;-80
2022/12/30 15:26:30;;;;;;;2.92;2.25;;;;;;;;;;5083302;28;20044;-81
2022/12/30 15:29:07;;;;;;;4.03;2.70;;;;;;;;;;5094939;28;20048;-80
2022/12/30 15:31:35;;;;;;;3.65;2.35;;;;;;;;;;5101969;28;20060;-80
2022/12/30 15:34:07;;;;;;;3.33;2.00;;;;;;;;;;5107620;28;20052;-80
2022/12/30 15:36:34;;;;;;;2.45;1.92;;;;;;;;;;5080581;28;20048;-79
2022/12/30 15:39:06;;;;;;;2.15;1.60;;;;;;;;;;5079795;28;20080;-80
2022/12/30 15:41:35;;;;;;;3.80;1.60;;;;;;;;;;5052835;28;20065;-80
2022/12/30 15:44:07;;;;;;;2.53;1.55;;;;;;;;;;5068939;28;20052;-79
2022/12/30 15:46:37;;;;;;;3.33;1.75;;;;;;;;;;5050159;28;20602;-81
2022/12/30 15:49:19;;;;;;;1.70;1.30;;;;;;;;;;5055831;28;20040;-78
2022/12/30 15:51:53;;;;;;;1.40;1.30;;;;;;;;;;5083210;28;20048;-77
2022/12/30 15:54:30;;;;;;;1.50;1.15;;;;;;;;;;5071436;28;20052;-81
2022/12/30 15:57:00;;;;;;;1.67;0.90;;;;;;;;;;5058611;28;20116;-80
2022/12/30 15:59:40;;;;;;;1.58;1.13;;;;;;;;;;5093632;28;20067;-81
2022/12/30 16:02:22;;;;;;;1.45;1.10;;;;;;;;;;5072393;28;20044;-81
2022/12/30 16:05:05;;;;;;;1.88;1.13;;;;;;;;;;5089500;28;20155;-81
2022/12/30 16:07:37;;;;;;;1.20;1.00;;;;;;;;;;5096266;28;20492;-82
2022/12/30 16:10:28;;;;;;;2.70;1.17;;;;;;;;;;5062672;28;20242;-82